Aérodrome :
LOGIN :

S'inscrire | Disclaimer

   EN    FR    IT 

 










Légende :    VFR   VFR Marginal   IFR   IFR Intensif   IFR Très Intensif
Visi : 
Plafond : 
>= 8 km
>= 3000ft
5 à 8 km
1000 à 3000 ft
1500m à 5 km
500 à 1000 ft
800 à 1500m
200 à 500 ft
< 800m
< 200 ft
Symboles :   Orages  Brouillard  Fortes neiges  Fortes précipitations  Vent > 20 kt
SIGMETs :   Divers  Orages  Givrage  Turbulence  Onde Orograph.  Cendres Volcan.







- Altitude de l'aérodrome : 325 ft
- Code IATA : BES
- Voir les cartes d'approche


LFRB - Brest

DERNIER METAR :
  • 210900Z AUTO 28007KT 240V310 9999 FEW046 15/08 Q1017 TEMPO SCT020TCU

METARs EXPIRÉS :
  • 210830Z AUTO 28008KT 260V320 9999 FEW035 SCT046 BKN056 14/08 Q1017 TEMPO SCT020TCU
  • 210800Z AUTO 28005KT 250V310 9999 FEW037 SCT064 13/09 Q1016 TEMPO SCT020TCU
  • 210730Z AUTO 28004KT CAVOK 12/09 Q1016 TEMPO SCT020TCU
  • 210700Z AUTO 29004KT 260V320 CAVOK 11/08 Q1015 TEMPO SCT020TCU
  • 210630Z AUTO 30005KT 270V330 9999 FEW027 BKN240 11/07 Q1015 TEMPO SCT020TCU

TAF TAF LFRB
Valide du 21 à 06h jusqu'au 22 à 12h UTC


210500Z 2106/2212 29010KT 9999 SCT025 SCT040
PROB30
TEMPO 2106/2114 -SHRA SCT020TCU
BECMG 2200/2203 21003KT
BECMG 2209/2212 18015KT -RA BKN014
ATIS : +33 2 98 32 02 71
Pas de NOTAMs connus pour ce terrain.



MET'MAP, la Météo Aéronautique d'un coup d'oeil ! - Copyright ORBIFLY Décembre 2007 - Disclaimer

ORBIFLY MET'MAP TEAM :

Programmation & Développement : Alexandra Zaïnal
Conception & Développement : Baudouin d'Aumeries
Co-Programmation & Développement : Marc-Olivier Méhu
Soutien technique & logistique : Manuel Goepfert

Contact : metmap@orbifly.com




SOURCES & CREDITS :

   NOAA